Accueil
METAR-TAF:

METAR-TAF

Aéroports :

Aéroport de Paris-Charles-de-Gaulle

Paris-Charles De Gaulle, France

latitude: 49-01N, longitude: 002-32E, altitude: 118 m

Observation

Le bulletin a été fait il y a 30 minutes, à 02:00 UTC
Vent 13 kt de nord
Température 5°C
Humidité 75%
Pression 1025 hPa
Visibilité 10 km ou plus
pas de nuages en-dessous de 1500 mètres et pas de cumulonimbus.

METAR: LFPG 170200Z 36013KT CAVOK 05/01 Q1025 NOSIG

Heure: 04:30 (02:30 UTC)

Prévision

Le bulletin a été fait il y a 3 heures et 30 minutes, à 23:00 UTC
Prévision valable du 17 à 00 UTC au 18 à 06 UTC
Vent 8 kt de nord
Visibilité 10 km ou plus
pas de nuages en-dessous de 1500 mètres et pas de cumulonimbus.

TAF: LFPG 162300Z 1700/1806 01008KT CAVOK TX14/1714Z TN02/1805Z

Observations et prévisions météorologiques de plus de 4000 aéroports (messages METAR et TAF).

Les stations disponibles sont représentées par des disques jaunes et rouges sur la carte.

Passer la souris dessus pour voir le nom de la station.

Cliquer dessus pour voir les observations et prévisions météorologiques.

Pour changer de carte: cliquez sur les boutons verts avec une croix noire pour zoomer, sur le bouton vert avec un tiret pour effectuer un zoom arrière, ou sur les flèches vertes pour les cartes adjacentes.


METAR-TAF: